Time;durP1;ratioP1;P1;durP2;ratioP2;P2;SDS_P1;SDS_P2;PMS_P1;PMS_P2;Temp;Humidity;BMP_temperature;BMP_pressure;BME280_temperature;BME280_humidity;BME280_pressure;Samples;Min_cycle;Max_cycle;Signal;HPM_P1;HPM_P2
2022/02/02 00:00:20;;;;;;;7.22;1.30;;;;;;;;;;5014254;28;20033;-69
2022/02/02 00:17:29;;;;;;;5.82;1.67;;;;;;;;;;5016256;28;20026;-70
2022/02/02 00:21:53;;;;;;;9.80;1.70;;;;;;;;;;5012172;28;20037;-68
2022/02/02 00:24:37;;;;;;;4.10;1.15;;;;;;;;;;5012862;28;20124;-68
2022/02/02 00:27:07;;;;;;;6.28;1.15;;;;;;;;;;5014961;28;20402;-68
2022/02/02 00:29:48;;;;;;;4.43;1.08;;;;;;;;;;5007896;28;20037;-69
2022/02/02 00:32:25;;;;;;;5.13;1.20;;;;;;;;;;5009871;28;20021;-73
2022/02/02 00:34:51;;;;;;;6.90;1.27;;;;;;;;;;5015037;28;20041;-74
2022/02/02 00:37:19;;;;;;;9.25;1.40;;;;;;;;;;5014087;28;20037;-69
2022/02/02 00:39:45;;;;;;;15.75;2.65;;;;;;;;;;5011617;28;20030;-70
2022/02/02 00:42:12;;;;;;;9.60;1.77;;;;;;;;;;5013087;28;20128;-76
2022/02/02 00:44:46;;;;;;;12.02;1.67;;;;;;;;;;5011641;28;20041;-75
2022/02/02 00:47:19;;;;;;;9.48;2.10;;;;;;;;;;5016474;28;20152;-72
2022/02/02 00:49:47;;;;;;;7.18;1.70;;;;;;;;;;5013994;28;20045;-72
2022/02/02 00:52:14;;;;;;;4.68;1.23;;;;;;;;;;5019446;28;20056;-75
2022/02/02 00:54:40;;;;;;;5.82;1.20;;;;;;;;;;5018985;28;20490;-74
2022/02/02 00:57:06;;;;;;;5.60;1.30;;;;;;;;;;5011027;28;20072;-72
2022/02/02 00:59:32;;;;;;;4.53;1.30;;;;;;;;;;5013061;28;20036;-75
2022/02/02 01:01:59;;;;;;;4.65;1.10;;;;;;;;;;5017874;28;20026;-74
2022/02/02 01:04:26;;;;;;;3.58;0.82;;;;;;;;;;5025376;28;20125;-74
2022/02/02 01:07:16;;;;;;;4.93;1.65;;;;;;;;;;5004719;28;20092;-71
2022/02/02 01:09:52;;;;;;;7.72;1.13;;;;;;;;;;5007222;28;20374;-75
2022/02/02 01:28:25;;;;;;;3.78;1.23;;;;;;;;;;5011670;28;20048;-71
2022/02/02 01:30:52;;;;;;;6.38;1.45;;;;;;;;;;5010053;28;20037;-76
2022/02/02 01:33:19;;;;;;;8.50;1.42;;;;;;;;;;5027312;28;20242;-70
2022/02/02 01:35:45;;;;;;;5.70;2.05;;;;;;;;;;5012525;28;20535;-70
2022/02/02 01:38:12;;;;;;;7.68;1.60;;;;;;;;;;5013961;28;20051;-70
2022/02/02 01:40:43;;;;;;;6.57;1.88;;;;;;;;;;5014096;28;20111;-74
2022/02/02 01:43:18;;;;;;;5.35;1.63;;;;;;;;;;5020636;28;20198;-71
2022/02/02 01:45:52;;;;;;;5.85;1.35;;;;;;;;;;5006730;28;20034;-75
2022/02/02 01:48:34;;;;;;;6.10;1.48;;;;;;;;;;5015009;28;20029;-72
2022/02/02 01:56:12;;;;;;;9.52;1.05;;;;;;;;;;5017220;28;20080;-70
2022/02/02 02:01:05;;;;;;;3.17;0.93;;;;;;;;;;5013965;28;20038;-70
2022/02/02 02:03:32;;;;;;;5.05;0.90;;;;;;;;;;5030351;28;20095;-70
2022/02/02 02:05:58;;;;;;;1.70;0.82;;;;;;;;;;5019325;28;20033;-71
2022/02/02 02:08:24;;;;;;;5.97;1.00;;;;;;;;;;5015307;28;20025;-70
2022/02/02 02:10:51;;;;;;;10.05;1.30;;;;;;;;;;5017436;28;20032;-70
2022/02/02 02:16:02;;;;;;;7.45;1.10;;;;;;;;;;5009929;28;20095;-70
2022/02/02 02:18:29;;;;;;;3.75;0.98;;;;;;;;;;5013853;28;20488;-70
2022/02/02 02:20:56;;;;;;;5.78;1.00;;;;;;;;;;5013703;28;20549;-69
2022/02/02 02:23:22;;;;;;;5.32;1.15;;;;;;;;;;5018916;28;20262;-70
2022/02/02 02:25:49;;;;;;;3.42;1.10;;;;;;;;;;5017869;28;20057;-70
2022/02/02 02:28:32;;;;;;;5.55;1.00;;;;;;;;;;5016562;28;20152;-72
2022/02/02 02:31:04;;;;;;;4.15;1.42;;;;;;;;;;5016168;28;20037;-71
2022/02/02 02:34:51;;;;;;;4.00;1.08;;;;;;;;;;5022197;28;20316;-70
2022/02/02 02:39:26;;;;;;;5.25;1.10;;;;;;;;;;5016812;28;20034;-70
2022/02/02 03:30:59;;;;;;;5.15;1.00;;;;;;;;;;5012134;28;20061;-69
2022/02/02 03:53:04;;;;;;;3.85;0.82;;;;;;;;;;5006945;28;20039;-68
2022/02/02 04:02:54;;;;;;;6.40;1.15;;;;;;;;;;5007130;28;20044;-68
2022/02/02 04:08:04;;;;;;;4.90;1.10;;;;;;;;;;5028543;28;20509;-68
2022/02/02 04:10:30;;;;;;;2.47;1.05;;;;;;;;;;5010995;28;20033;-68
2022/02/02 04:13:09;;;;;;;4.53;1.30;;;;;;;;;;4993010;28;20652;-68
2022/02/02 04:37:52;;;;;;;4.65;0.90;;;;;;;;;;5011160;28;20547;-68
2022/02/02 05:06:56;;;;;;;7.93;0.93;;;;;;;;;;5005403;28;20237;-70
2022/02/02 05:20:38;;;;;;;3.00;0.82;;;;;;;;;;5010794;28;20025;-69
2022/02/02 05:52:22;;;;;;;6.40;1.13;;;;;;;;;;5019542;28;20038;-69
2022/02/02 05:54:48;;;;;;;5.97;0.77;;;;;;;;;;5013461;28;20083;-72
2022/02/02 05:57:15;;;;;;;3.10;0.75;;;;;;;;;;5013794;28;20410;-70
2022/02/02 05:59:42;;;;;;;4.93;1.00;;;;;;;;;;5014772;28;20191;-71
2022/02/02 06:02:12;;;;;;;6.95;0.88;;;;;;;;;;5023816;28;20194;-70
2022/02/02 06:04:43;;;;;;;2.55;0.70;;;;;;;;;;5010832;28;20404;-73
2022/02/02 06:07:09;;;;;;;13.45;2.08;;;;;;;;;;5010789;28;20080;-70
2022/02/02 06:09:38;;;;;;;5.55;0.85;;;;;;;;;;5010353;28;20056;-70
2022/02/02 06:12:05;;;;;;;5.10;0.70;;;;;;;;;;5031742;28;20033;-70
2022/02/02 06:14:32;;;;;;;4.32;1.10;;;;;;;;;;5019249;28;20514;-69
2022/02/02 06:17:03;;;;;;;3.45;0.80;;;;;;;;;;5012949;28;20033;-70
2022/02/02 06:19:29;;;;;;;2.70;0.85;;;;;;;;;;5012381;28;20041;-69
2022/02/02 06:22:14;;;;;;;5.65;1.42;;;;;;;;;;5008963;28;20607;-71
2022/02/02 06:24:52;;;;;;;2.03;0.70;;;;;;;;;;5001108;28;20042;-71
2022/02/02 06:27:25;;;;;;;4.30;1.20;;;;;;;;;;5013610;28;20021;-68
2022/02/02 06:30:08;;;;;;;6.05;1.10;;;;;;;;;;5018327;28;20554;-69
2022/02/02 06:32:43;;;;;;;2.80;0.70;;;;;;;;;;5021772;28;20022;-70
2022/02/02 06:35:10;;;;;;;2.92;1.35;;;;;;;;;;5011743;28;20045;-70
2022/02/02 06:37:39;;;;;;;6.88;1.38;;;;;;;;;;5017524;28;20037;-70
2022/02/02 06:40:06;;;;;;;4.88;1.15;;;;;;;;;;5014126;28;20107;-71
2022/02/02 06:42:32;;;;;;;3.65;1.00;;;;;;;;;;5008103;28;20040;-70
2022/02/02 06:45:00;;;;;;;2.20;1.00;;;;;;;;;;4995162;28;20348;-72
2022/02/02 06:47:27;;;;;;;4.68;1.15;;;;;;;;;;5017249;28;21026;-70
2022/02/02 06:50:03;;;;;;;2.88;1.10;;;;;;;;;;5017910;28;20033;-70
2022/02/02 06:52:35;;;;;;;9.10;1.67;;;;;;;;;;5006990;28;20552;-73
2022/02/02 06:55:07;;;;;;;5.05;1.25;;;;;;;;;;5009222;28;20076;-70
2022/02/02 06:57:47;;;;;;;6.47;1.30;;;;;;;;;;5001751;28;20025;-71
2022/02/02 07:03:13;;;;;;;7.13;1.50;;;;;;;;;;5013440;28;20568;-76
2022/02/02 07:06:05;;;;;;;3.83;1.00;;;;;;;;;;5007281;28;20103;-71
2022/02/02 07:18:52;;;;;;;7.82;1.48;;;;;;;;;;5005949;28;21060;-71
2022/02/02 07:21:35;;;;;;;8.60;1.23;;;;;;;;;;5012186;28;20025;-70
2022/02/02 07:24:29;;;;;;;33.97;3.38;;;;;;;;;;5010760;28;20040;-70
2022/02/02 07:29:55;;;;;;;6.85;1.83;;;;;;;;;;5010045;28;20036;-74
2022/02/02 07:32:26;;;;;;;9.00;1.80;;;;;;;;;;5012168;28;20105;-70
2022/02/02 07:35:27;;;;;;;10.18;1.80;;;;;;;;;;5010802;28;20054;-71
2022/02/02 07:38:17;;;;;;;9.75;2.00;;;;;;;;;;5027186;28;20504;-71
2022/02/02 07:40:46;;;;;;;11.00;1.77;;;;;;;;;;4998783;28;20636;-72
2022/02/02 07:43:28;;;;;;;9.68;1.50;;;;;;;;;;5022784;28;20032;-71
2022/02/02 07:46:14;;;;;;;10.50;1.50;;;;;;;;;;5013645;28;20033;-71
2022/02/02 07:48:42;;;;;;;6.85;1.35;;;;;;;;;;5005287;28;20091;-71
2022/02/02 07:51:09;;;;;;;11.60;1.77;;;;;;;;;;5012511;28;20028;-71
2022/02/02 07:53:41;;;;;;;9.70;1.60;;;;;;;;;;5016368;28;20084;-71
2022/02/02 07:56:14;;;;;;;10.40;1.48;;;;;;;;;;5010176;28;20108;-71
2022/02/02 07:58:44;;;;;;;7.80;1.40;;;;;;;;;;5024354;28;20030;-71
2022/02/02 08:01:12;;;;;;;29.40;2.90;;;;;;;;;;5009780;28;20028;-69
2022/02/02 08:03:41;;;;;;;11.13;1.88;;;;;;;;;;5010859;28;20046;-70
2022/02/02 08:06:09;;;;;;;9.20;1.65;;;;;;;;;;5013553;28;20144;-69
2022/02/02 08:08:38;;;;;;;9.50;1.80;;;;;;;;;;4995881;28;20029;-70
2022/02/02 08:11:10;;;;;;;8.20;1.75;;;;;;;;;;4993804;28;20025;-70
2022/02/02 08:13:43;;;;;;;5.57;1.95;;;;;;;;;;5013403;28;20022;-71
2022/02/02 08:16:13;;;;;;;8.68;1.45;;;;;;;;;;5011238;28;20021;-74
2022/02/02 08:18:44;;;;;;;4.13;1.63;;;;;;;;;;5013255;28;20022;-70
2022/02/02 08:21:10;;;;;;;4.93;1.42;;;;;;;;;;5011461;28;20033;-70
2022/02/02 08:23:36;;;;;;;6.10;1.27;;;;;;;;;;5009150;28;20103;-71
2022/02/02 08:26:05;;;;;;;7.03;1.25;;;;;;;;;;5020728;28;20038;-71
2022/02/02 08:28:31;;;;;;;5.50;1.40;;;;;;;;;;5009357;28;20505;-70
2022/02/02 08:30:58;;;;;;;4.18;1.20;;;;;;;;;;5014733;28;20045;-72
2022/02/02 08:33:33;;;;;;;8.20;1.35;;;;;;;;;;5012886;28;20945;-71
2022/02/02 08:35:59;;;;;;;9.25;1.23;;;;;;;;;;5012131;28;20116;-71
2022/02/02 08:43:29;;;;;;;3.95;1.10;;;;;;;;;;5009288;28;20033;-72
2022/02/02 08:46:07;;;;;;;8.32;1.98;;;;;;;;;;5014611;28;20029;-71
2022/02/02 08:48:35;;;;;;;6.55;1.10;;;;;;;;;;5008568;28;20018;-70
2022/02/02 08:51:08;;;;;;;4.82;1.20;;;;;;;;;;5011143;28;20497;-70
2022/02/02 08:58:50;;;;;;;5.68;1.65;;;;;;;;;;5010124;28;20041;-70
2022/02/02 09:01:23;;;;;;;5.70;1.23;;;;;;;;;;5020690;28;20385;-72
2022/02/02 09:06:34;;;;;;;7.10;1.30;;;;;;;;;;5015100;28;20028;-71
2022/02/02 09:09:35;;;;;;;6.35;1.50;;;;;;;;;;5016994;28;20092;-71
2022/02/02 09:25:25;;;;;;;9.88;1.30;;;;;;;;;;5010602;28;20503;-71
2022/02/02 09:36:01;;;;;;;10.18;1.45;;;;;;;;;;5015021;28;20041;-69
2022/02/02 09:38:27;;;;;;;6.25;1.23;;;;;;;;;;5014137;28;20026;-69
2022/02/02 09:43:26;;;;;;;2.75;0.80;;;;;;;;;;5026850;28;20025;-70
2022/02/02 09:46:00;;;;;;;5.07;1.48;;;;;;;;;;5027397;28;20057;-71
2022/02/02 09:48:35;;;;;;;5.45;1.13;;;;;;;;;;5013255;28;20018;-69
2022/02/02 09:51:07;;;;;;;13.43;1.20;;;;;;;;;;5012255;28;20033;-69
2022/02/02 09:53:39;;;;;;;6.55;1.50;;;;;;;;;;5014702;28;20076;-69
2022/02/02 10:04:19;;;;;;;5.75;1.20;;;;;;;;;;5024248;28;20038;-68
2022/02/02 10:07:10;;;;;;;5.30;1.10;;;;;;;;;;5024270;28;20029;-68
2022/02/02 10:10:00;;;;;;;11.88;1.92;;;;;;;;;;5022821;28;20021;-68
2022/02/02 10:12:45;;;;;;;6.43;1.45;;;;;;;;;;5024127;28;20062;-68
2022/02/02 10:15:15;;;;;;;5.25;1.02;;;;;;;;;;5023535;28;20021;-67
2022/02/02 10:17:42;;;;;;;6.50;1.42;;;;;;;;;;5006497;28;20115;-68
2022/02/02 10:20:21;;;;;;;4.82;0.88;;;;;;;;;;5022672;28;20505;-69
2022/02/02 10:22:49;;;;;;;6.07;1.33;;;;;;;;;;5023853;28;20296;-70
2022/02/02 10:25:27;;;;;;;4.65;0.80;;;;;;;;;;5023637;28;20057;-69
2022/02/02 10:28:05;;;;;;;6.13;1.23;;;;;;;;;;5024215;28;20025;-68
2022/02/02 10:30:32;;;;;;;2.42;0.93;;;;;;;;;;5022799;28;20033;-69
2022/02/02 10:32:59;;;;;;;11.27;1.48;;;;;;;;;;5024088;28;20588;-70
2022/02/02 10:35:28;;;;;;;11.52;4.32;;;;;;;;;;5023028;28;20068;-70
2022/02/02 10:38:05;;;;;;;21.88;9.70;;;;;;;;;;5023365;28;20407;-71
2022/02/02 10:40:38;;;;;;;8.38;1.77;;;;;;;;;;5022097;28;20064;-69
2022/02/02 10:43:18;;;;;;;24.55;3.30;;;;;;;;;;5022978;28;20025;-70
2022/02/02 10:45:44;;;;;;;5.63;1.20;;;;;;;;;;5006624;28;20593;-69
2022/02/02 10:48:18;;;;;;;7.82;1.23;;;;;;;;;;5015103;28;20071;-71
2022/02/02 10:50:55;;;;;;;5.93;0.80;;;;;;;;;;5014118;28;20112;-71
2022/02/02 10:53:40;;;;;;;9.52;1.73;;;;;;;;;;5014352;28;20560;-71
2022/02/02 10:56:41;;;;;;;7.60;1.58;;;;;;;;;;4996861;28;20180;-71
2022/02/02 11:07:25;;;;;;;10.18;1.85;;;;;;;;;;4991147;28;20038;-71
2022/02/02 11:09:53;;;;;;;3.90;1.30;;;;;;;;;;5024561;28;20115;-72
2022/02/02 11:12:21;;;;;;;11.90;1.50;;;;;;;;;;5014263;28;20137;-71
2022/02/02 11:14:48;;;;;;;6.28;1.50;;;;;;;;;;5014856;28;20045;-71
2022/02/02 11:17:20;;;;;;;8.75;1.63;;;;;;;;;;5014564;28;20038;-71
2022/02/02 11:19:46;;;;;;;;;;;;;;;;;;4997395;28;20041;-72
2022/02/02 11:22:20;;;;;;;7.82;2.20;;;;;;;;;;5013698;28;19948;-71
2022/02/02 11:24:46;;;;;;;8.40;1.95;;;;;;;;;;5009767;28;20038;-72
2022/02/02 11:27:31;;;;;;;6.55;2.10;;;;;;;;;;5011669;28;20045;-71
2022/02/02 11:29:57;;;;;;;10.20;2.17;;;;;;;;;;5009590;28;20049;-71
2022/02/02 11:32:23;;;;;;;9.90;2.03;;;;;;;;;;5028017;28;20056;-70
2022/02/02 11:35:09;;;;;;;12.63;2.75;;;;;;;;;;5020549;28;20053;-71
2022/02/02 11:37:54;;;;;;;9.52;1.63;;;;;;;;;;5015366;28;20029;-71
2022/02/02 11:40:20;;;;;;;11.02;2.00;;;;;;;;;;5016616;28;20038;-71
2022/02/02 11:43:08;;;;;;;9.50;2.10;;;;;;;;;;5014512;28;20021;-71
2022/02/02 11:45:36;;;;;;;9.43;2.10;;;;;;;;;;5020113;28;20124;-71
2022/02/02 11:48:16;;;;;;;16.05;3.53;;;;;;;;;;5014119;28;20037;-69
2022/02/02 11:50:46;;;;;;;30.73;4.63;;;;;;;;;;5013983;28;20037;-70
2022/02/02 11:53:12;;;;;;;11.07;2.97;;;;;;;;;;5028664;28;20025;-72
2022/02/02 11:55:42;;;;;;;17.13;2.83;;;;;;;;;;5010332;28;20194;-72
2022/02/02 11:58:14;;;;;;;12.75;2.42;;;;;;;;;;5008763;28;20029;-71
2022/02/02 12:01:17;;;;;;;12.40;2.67;;;;;;;;;;5026977;28;20040;-71
2022/02/02 13:00:14;;;;;;;19.35;3.67;;;;;;;;;;5013795;28;20036;-71
2022/02/02 13:02:45;;;;;;;14.73;3.25;;;;;;;;;;5015655;28;20037;-72
2022/02/02 13:05:12;;;;;;;14.45;3.30;;;;;;;;;;5011093;28;20098;-71
2022/02/02 13:07:41;;;;;;;24.33;5.25;;;;;;;;;;5026075;28;20021;-71
2022/02/02 13:10:08;;;;;;;18.13;4.35;;;;;;;;;;5011826;28;20091;-71
2022/02/02 13:15:30;;;;;;;25.73;4.50;;;;;;;;;;5018241;28;20037;-70
2022/02/02 13:20:33;;;;;;;20.40;4.47;;;;;;;;;;5005976;28;20038;-70
2022/02/02 13:23:12;;;;;;;13.75;3.22;;;;;;;;;;5022818;28;20484;-70
2022/02/02 13:25:40;;;;;;;17.85;3.55;;;;;;;;;;4989775;28;20409;-70
2022/02/02 13:28:08;;;;;;;12.18;3.33;;;;;;;;;;5010849;28;20029;-70
2022/02/02 13:30:41;;;;;;;15.10;3.53;;;;;;;;;;5020227;28;20262;-70
2022/02/02 13:33:20;;;;;;;14.68;3.63;;;;;;;;;;5006419;28;20044;-70
2022/02/02 13:36:00;;;;;;;18.30;3.92;;;;;;;;;;5012397;28;20033;-70
2022/02/02 13:39:00;;;;;;;15.13;3.38;;;;;;;;;;5003423;28;20030;-70
2022/02/02 13:44:36;;;;;;;13.15;3.10;;;;;;;;;;5018973;28;20040;-70
2022/02/02 13:47:38;;;;;;;14.90;4.68;;;;;;;;;;5016296;28;20026;-70
2022/02/02 13:50:25;;;;;;;12.35;4.18;;;;;;;;;;5027316;28;20124;-71
2022/02/02 13:53:01;;;;;;;16.65;4.85;;;;;;;;;;5008685;28;20674;-71
2022/02/02 13:55:46;;;;;;;;;;;;;;;;;;5011073;28;20018;-71
2022/02/02 13:58:36;;;;;;;12.85;3.65;;;;;;;;;;5026289;28;20003;-71
2022/02/02 14:01:22;;;;;;;17.60;4.57;;;;;;;;;;5007593;28;20038;-69
2022/02/02 14:09:11;;;;;;;35.00;3.38;;;;;;;;;;5009701;28;20560;-70
2022/02/02 14:31:13;;;;;;;13.25;2.80;;;;;;;;;;5009693;28;20070;-72
2022/02/02 14:33:40;;;;;;;10.52;2.30;;;;;;;;;;5012674;28;20750;-72
2022/02/02 14:36:09;;;;;;;13.98;2.53;;;;;;;;;;5008153;28;20593;-70
2022/02/02 14:38:46;;;;;;;11.13;2.70;;;;;;;;;;5014154;28;20029;-70
2022/02/02 14:41:32;;;;;;;18.48;2.40;;;;;;;;;;5011751;28;20120;-70
2022/02/02 14:46:36;;;;;;;12.82;2.58;;;;;;;;;;5021101;28;20037;-71
2022/02/02 14:49:14;;;;;;;9.98;2.10;;;;;;;;;;5010941;28;20037;-72
2022/02/02 14:54:52;;;;;;;11.13;2.28;;;;;;;;;;4998334;28;20018;-71
2022/02/02 15:23:57;;;;;;;7.15;1.98;;;;;;;;;;5014830;28;20088;-71
2022/02/02 15:30:25;;;;;;;;;;;;;;;;;;5019357;28;20551;-70
2022/02/02 15:32:54;;;;;;;12.45;1.75;;;;;;;;;;5010985;28;19913;-69
2022/02/02 15:35:21;;;;;;;9.88;1.73;;;;;;;;;;5014275;28;20030;-69
2022/02/02 15:40:16;;;;;;;10.45;2.60;;;;;;;;;;5013727;28;20021;-71
2022/02/02 15:42:52;;;;;;;12.18;2.00;;;;;;;;;;5013027;28;20116;-71
2022/02/02 15:58:59;;;;;;;5.32;1.25;;;;;;;;;;5012746;28;20148;-70
2022/02/02 16:04:15;;;;;;;8.60;1.80;;;;;;;;;;5018872;28;20120;-70
2022/02/02 16:06:41;;;;;;;6.47;1.05;;;;;;;;;;5008607;28;20039;-70
2022/02/02 16:09:23;;;;;;;10.52;1.60;;;;;;;;;;5017150;28;20093;-70
2022/02/02 16:12:06;;;;;;;12.57;2.25;;;;;;;;;;5022384;28;20038;-71
2022/02/02 16:14:40;;;;;;;6.50;1.88;;;;;;;;;;5017865;28;20424;-71
2022/02/02 16:34:19;;;;;;;10.30;1.80;;;;;;;;;;5003882;28;20504;-70
2022/02/02 16:36:19;;;;;;;9.88;1.50;;;;;;;;;;5002994;28;20140;-69
2022/02/02 16:38:57;;;;;;;11.75;1.80;;;;;;;;;;5024806;28;20079;-69
2022/02/02 16:44:09;;;;;;;4.40;1.40;;;;;;;;;;5012284;28;20068;-69
2022/02/02 16:46:35;;;;;;;9.30;1.90;;;;;;;;;;5019127;28;20076;-69
2022/02/02 16:49:02;;;;;;;7.47;1.52;;;;;;;;;;4998022;28;20036;-69
2022/02/02 16:51:28;;;;;;;8.48;1.55;;;;;;;;;;4999412;28;20418;-69
2022/02/02 16:53:57;;;;;;;9.23;1.55;;;;;;;;;;4999762;28;20032;-69
2022/02/02 16:56:43;;;;;;;5.82;1.38;;;;;;;;;;5003674;28;20112;-69
2022/02/02 17:29:48;;;;;;;4.00;1.27;;;;;;;;;;5013892;28;20147;-70
2022/02/02 17:39:43;;;;;;;10.60;2.28;;;;;;;;;;5011148;28;20026;-69
2022/02/02 18:12:15;;;;;;;;;;;;;;;;;;5016645;28;20029;-69
2022/02/02 18:19:32;;;;;;;3.85;0.80;;;;;;;;;;5027896;28;20030;-69
2022/02/02 18:21:58;;;;;;;5.25;0.90;;;;;;;;;;5012181;28;20112;-69
2022/02/02 18:24:32;;;;;;;2.03;0.65;;;;;;;;;;5014118;28;20048;-69
2022/02/02 18:27:08;;;;;;;4.03;1.10;;;;;;;;;;5020994;28;20030;-69
2022/02/02 18:35:11;;;;;;;4.70;0.90;;;;;;;;;;5012055;28;20041;-69
2022/02/02 18:45:41;;;;;;;6.65;1.08;;;;;;;;;;5013075;28;20635;-69
2022/02/02 18:48:21;;;;;;;4.55;0.93;;;;;;;;;;5012247;28;20738;-69
2022/02/02 18:56:01;;;;;;;7.10;1.30;;;;;;;;;;5012959;28;20025;-71
2022/02/02 19:01:14;;;;;;;10.77;1.15;;;;;;;;;;5023590;28;20041;-71
2022/02/02 19:55:28;;;;;;;9.27;2.60;;;;;;;;;;4972773;28;20140;-71
2022/02/02 20:08:57;;;;;;;9.73;1.98;;;;;;;;;;5016751;28;20500;-71
2022/02/02 20:11:27;;;;;;;10.23;2.33;;;;;;;;;;5000163;28;20108;-72
2022/02/02 20:13:53;;;;;;;16.00;2.70;;;;;;;;;;5024873;28;20037;-71
2022/02/02 20:16:19;;;;;;;8.63;2.25;;;;;;;;;;5026913;28;20036;-72
2022/02/02 20:18:48;;;;;;;9.80;2.03;;;;;;;;;;4998257;28;20037;-71
2022/02/02 20:21:17;;;;;;;10.50;2.70;;;;;;;;;;5018086;28;20025;-72
2022/02/02 20:23:47;;;;;;;9.57;2.17;;;;;;;;;;5011250;28;20033;-72
2022/02/02 20:26:16;;;;;;;10.85;3.33;;;;;;;;;;5008445;28;20038;-72
2022/02/02 20:28:43;;;;;;;9.02;1.85;;;;;;;;;;5020865;28;20025;-72
2022/02/02 20:31:09;;;;;;;12.35;2.30;;;;;;;;;;5009799;28;20182;-71
2022/02/02 20:33:36;;;;;;;9.85;2.05;;;;;;;;;;5007522;28;20052;-71
2022/02/02 20:36:02;;;;;;;6.65;2.00;;;;;;;;;;5011052;28;20041;-71
2022/02/02 20:38:28;;;;;;;10.88;2.53;;;;;;;;;;5002798;28;20562;-71
2022/02/02 20:40:55;;;;;;;14.50;2.85;;;;;;;;;;5016207;28;20448;-71
2022/02/02 20:43:33;;;;;;;10.32;2.17;;;;;;;;;;5010070;28;20094;-72
2022/02/02 20:46:23;;;;;;;10.38;1.90;;;;;;;;;;5011089;28;20099;-71
2022/02/02 21:05:35;;;;;;;12.50;3.33;;;;;;;;;;5015443;28;20651;-72
2022/02/02 21:10:31;;;;;;;7.13;1.95;;;;;;;;;;5013061;28;20113;-72
2022/02/02 21:15:43;;;;;;;6.47;2.17;;;;;;;;;;5014622;28;20044;-72
2022/02/02 21:18:16;;;;;;;10.43;1.70;;;;;;;;;;5014783;28;20544;-73
2022/02/02 21:26:14;;;;;;;11.32;2.25;;;;;;;;;;4990155;28;20056;-72
2022/02/02 21:28:40;;;;;;;8.55;1.95;;;;;;;;;;5013598;28;20133;-72
2022/02/02 21:31:07;;;;;;;7.88;2.17;;;;;;;;;;5014479;28;20025;-71
2022/02/02 21:33:38;;;;;;;10.07;2.00;;;;;;;;;;5022006;28;20033;-71
2022/02/02 21:36:08;;;;;;;8.32;2.30;;;;;;;;;;5007930;28;20033;-71
2022/02/02 21:38:53;;;;;;;12.02;2.47;;;;;;;;;;5011874;28;20025;-71
2022/02/02 21:41:24;;;;;;;9.57;2.45;;;;;;;;;;5011690;28;20032;-71
2022/02/02 21:43:50;;;;;;;8.75;1.88;;;;;;;;;;5010072;28;20029;-71
2022/02/02 21:46:16;;;;;;;7.95;2.03;;;;;;;;;;5008287;28;20049;-71
2022/02/02 21:48:42;;;;;;;16.17;2.22;;;;;;;;;;5010601;28;20026;-71
2022/02/02 21:51:19;;;;;;;7.82;1.80;;;;;;;;;;5014421;28;20059;-71
2022/02/02 21:53:45;;;;;;;8.38;1.83;;;;;;;;;;4994314;28;20395;-71
2022/02/02 21:56:11;;;;;;;9.40;2.00;;;;;;;;;;5025785;28;20029;-72
2022/02/02 21:58:38;;;;;;;9.35;1.90;;;;;;;;;;5011020;28;20773;-71
2022/02/02 22:01:04;;;;;;;10.40;2.65;;;;;;;;;;5016562;28;20389;-71
2022/02/02 22:03:30;;;;;;;12.82;2.92;;;;;;;;;;5020351;28;20029;-71
2022/02/02 22:05:56;;;;;;;9.30;2.08;;;;;;;;;;5008762;28;20540;-72
2022/02/02 22:08:22;;;;;;;12.35;2.20;;;;;;;;;;5010809;28;20496;-72
2022/02/02 22:10:49;;;;;;;9.52;2.22;;;;;;;;;;5014590;28;20096;-71
2022/02/02 22:13:16;;;;;;;7.65;1.95;;;;;;;;;;5022034;28;21056;-71
2022/02/02 22:15:51;;;;;;;14.88;3.83;;;;;;;;;;5017910;28;20033;-72
2022/02/02 22:18:18;;;;;;;15.05;4.10;;;;;;;;;;5016900;28;20110;-71
2022/02/02 22:20:45;;;;;;;13.50;2.53;;;;;;;;;;5023210;28;20029;-72
2022/02/02 22:23:11;;;;;;;13.25;3.25;;;;;;;;;;5010772;28;20456;-72
2022/02/02 22:25:37;;;;;;;10.75;2.58;;;;;;;;;;5013107;28;20075;-71
2022/02/02 22:28:04;;;;;;;12.70;2.50;;;;;;;;;;5016260;28;20497;-73
2022/02/02 22:30:30;;;;;;;19.15;4.63;;;;;;;;;;5016816;28;20025;-71
2022/02/02 22:32:56;;;;;;;9.70;3.30;;;;;;;;;;5026491;28;20026;-72
2022/02/02 22:35:23;;;;;;;13.77;4.00;;;;;;;;;;5015590;28;20057;-72
2022/02/02 22:37:49;;;;;;;13.43;3.30;;;;;;;;;;5031260;28;20031;-72
2022/02/02 22:40:22;;;;;;;15.90;3.45;;;;;;;;;;5023293;28;20032;-72
2022/02/02 22:42:48;;;;;;;18.20;3.75;;;;;;;;;;5015642;28;20182;-72
2022/02/02 22:45:15;;;;;;;19.60;3.05;;;;;;;;;;5007565;28;20129;-71
2022/02/02 22:47:46;;;;;;;13.68;4.53;;;;;;;;;;5022993;28;20033;-72
2022/02/02 22:50:14;;;;;;;13.65;2.80;;;;;;;;;;5010042;28;20026;-74
2022/02/02 22:52:42;;;;;;;14.80;3.97;;;;;;;;;;5013818;28;20088;-73
2022/02/02 22:55:14;;;;;;;14.07;3.20;;;;;;;;;;5011257;28;20048;-74
2022/02/02 22:57:40;;;;;;;;;;;;;;;;;;5020704;28;20091;-74
2022/02/02 23:00:09;;;;;;;17.67;2.97;;;;;;;;;;5012337;28;19941;-74
2022/02/02 23:05:08;;;;;;;17.52;3.30;;;;;;;;;;5016882;28;20050;-72
2022/02/02 23:07:34;;;;;;;20.02;3.35;;;;;;;;;;5021161;28;20044;-71
2022/02/02 23:10:00;;;;;;;22.17;4.72;;;;;;;;;;5010220;28;20034;-74
2022/02/02 23:12:28;;;;;;;14.85;3.38;;;;;;;;;;5024048;28;20032;-74
2022/02/02 23:14:57;;;;;;;12.63;2.92;;;;;;;;;;5005196;28;20033;-75
2022/02/02 23:17:25;;;;;;;13.40;3.28;;;;;;;;;;5000297;28;20034;-73
